Terminal Aerodrome Forecast
Issued by NWS

Home | Current Version | Previous Version | Graphics & Text | Print | Product List | Glossary On
Versions: 1 2 3 4 5 6 7 8 9 10 11 12 13 14 15 16 17 18 19 20 21 22 23 24 25
199
FTUS42 KMHX 162336
TAFPGV
TAF
KPGV 162336Z 1700/1724 35011G18KT P6SM VCSH SCT025 OVC040
     FM170200 35010KT P6SM -RA OVC020
     FM170500 03010KT P6SM OVC020
     FM171000 07010KT P6SM SCT020 OVC035
     FM171800 08008KT P6SM OVC020
     FM172100 VRB04KT 5SM -SHRA OVC008
      AMD LTD TO CLD VIS AND WIND=

USA.gov is the U.S. government's official web portal to all federal, state and local government web resources and services.